Información del aeropuerto LESO

Información de pista
Pista 04 Longitud 5755 ft Anchura 148 ft
Elevación 10 ft Umbral 0 ft Rumbo 39
Pista 22 Longitud 5755 ft Anchura 148 ft
Elevación 15 ft Umbral 0 ft Rumbo 219
Frecuencias del aeropuerto
Tipo TWR Nombre SAN SEBAST Frecuencia 119.85 MHZ
Radioayudas del aeropuerto
Tipo NDB-DME Nombre San Sebastian Frecuencia 328 KHZ
Tipo VOR-DME Nombre San Sebastian Frecuencia 117900 KHZ
Información meteorológica del aeropuerto y NOTAM
ADDS - METARS form results

(1124 UTC 03 March 2021)
Data provider http://aviationweather.gov/metar/data/
 
METAR text: LESO 031100Z 01004KT 330V060 CAVOK 16/10 Q1028
Conditions at: LESO (SAN SEBASTIAN/FU, ES) observed 1100 UTC 03 March 2021
Temperature: 16.0°C (61°F)
Dewpoint: 10.0°C (50°F) [RH = 68%]
Pressure (altimeter): 30.35 inches Hg (1028.0 mb)
Winds: from the N (10 degrees) at 5 MPH (4 knots; 2.1 m/s)
Visibility: 6 or more miles (10+ km)
Ceiling: ceiling and visibility are OK
Clouds: unknown
Weather: no significant weather observed at this time

METAR text: LESO 031030Z 36003KT 320V030 CAVOK 15/08 Q1029
Conditions at: LESO (SAN SEBASTIAN/FU, ES) observed 1030 UTC 03 March 2021
Temperature: 15.0°C (59°F)
Dewpoint: 8.0°C (46°F) [RH = 63%]
Pressure (altimeter): 30.38 inches Hg (1029.0 mb)
Winds: from the N (360 degrees) at 3 MPH (3 knots; 1.5 m/s)
Visibility: 6 or more miles (10+ km)
Ceiling: ceiling and visibility are OK
Clouds: unknown
Weather: no significant weather observed at this time

Forecast for: LESO (SAN SEBASTIAN/FU, ES)
Text: TAF LESO 030500Z 0306/0406 VRB04KT CAVOK TX19/0314Z TN08/0406Z
Forecast period: 0600 UTC 03 March 2021 to 0600 UTC 04 March 2021
Forecast type: FROM: standard forecast or significant change
Winds: variable direction winds at 5 MPH (4 knots; 2.1 m/s)
Visibility: 6 or more miles (10+ km)
Ceiling: unknown
Clouds: missing
Weather: no significant weather forecast for this period